sensor_id;sensor_type;location;lat;lon;timestamp;temperature;humidity
36690;DHT22;22676;51.120;3.702;2023-08-31T00:01:39;24.40;53.40
36690;DHT22;22676;51.120;3.702;2023-08-31T00:04:05;24.40;53.20
36690;DHT22;22676;51.120;3.702;2023-08-31T00:06:42;24.30;53.60
36690;DHT22;22676;51.120;3.702;2023-08-31T00:09:10;24.30;53.80
36690;DHT22;22676;51.120;3.702;2023-08-31T00:11:36;24.30;53.90
36690;DHT22;22676;51.120;3.702;2023-08-31T00:14:02;24.20;53.90
36690;DHT22;22676;51.120;3.702;2023-08-31T00:16:28;24.20;54.00
36690;DHT22;22676;51.120;3.702;2023-08-31T00:18:56;24.20;54.10
36690;DHT22;22676;51.120;3.702;2023-08-31T00:21:22;24.20;54.10
36690;DHT22;22676;51.120;3.702;2023-08-31T00:23:48;24.20;54.20
36690;DHT22;22676;51.120;3.702;2023-08-31T00:26:14;24.20;54.20
36690;DHT22;22676;51.120;3.702;2023-08-31T00:28:40;24.20;54.20
36690;DHT22;22676;51.120;3.702;2023-08-31T00:31:08;24.20;54.30
36690;DHT22;22676;51.120;3.702;2023-08-31T00:33:34;24.10;54.20
36690;DHT22;22676;51.120;3.702;2023-08-31T00:36:03;24.10;54.30
36690;DHT22;22676;51.120;3.702;2023-08-31T00:38:29;24.10;54.30
36690;DHT22;22676;51.120;3.702;2023-08-31T00:40:55;24.10;54.40
36690;DHT22;22676;51.120;3.702;2023-08-31T00:43:21;24.10;54.30
36690;DHT22;22676;51.120;3.702;2023-08-31T00:45:50;24.10;54.40
36690;DHT22;22676;51.120;3.702;2023-08-31T00:48:17;24.10;54.40
36690;DHT22;22676;51.120;3.702;2023-08-31T00:50:46;24.00;54.10
36690;DHT22;22676;51.120;3.702;2023-08-31T00:53:13;24.10;53.50
36690;DHT22;22676;51.120;3.702;2023-08-31T00:55:39;24.00;52.70
36690;DHT22;22676;51.120;3.702;2023-08-31T00:58:08;24.00;52.70
36690;DHT22;22676;51.120;3.702;2023-08-31T01:01:01;24.00;53.20
36690;DHT22;22676;51.120;3.702;2023-08-31T01:09:25;24.00;54.10
36690;DHT22;22676;51.120;3.702;2023-08-31T01:11:57;24.00;54.20
36690;DHT22;22676;51.120;3.702;2023-08-31T01:14:29;23.90;54.20
36690;DHT22;22676;51.120;3.702;2023-08-31T01:16:58;23.90;54.20
36690;DHT22;22676;51.120;3.702;2023-08-31T01:19:43;23.90;54.20
36690;DHT22;22676;51.120;3.702;2023-08-31T01:22:16;23.90;54.20
36690;DHT22;22676;51.120;3.702;2023-08-31T01:24:44;23.90;54.40
36690;DHT22;22676;51.120;3.702;2023-08-31T01:27:10;23.90;54.40
36690;DHT22;22676;51.120;3.702;2023-08-31T01:29:36;23.90;54.50
36690;DHT22;22676;51.120;3.702;2023-08-31T01:32:05;23.90;54.10
36690;DHT22;22676;51.120;3.702;2023-08-31T01:34:32;23.90;54.10
36690;DHT22;22676;51.120;3.702;2023-08-31T01:37:00;23.90;54.00
36690;DHT22;22676;51.120;3.702;2023-08-31T01:39:51;23.90;54.00
36690;DHT22;22676;51.120;3.702;2023-08-31T01:42:18;23.90;54.00
36690;DHT22;22676;51.120;3.702;2023-08-31T01:44:45;23.80;54.00
36690;DHT22;22676;51.120;3.702;2023-08-31T01:47:15;23.80;54.00
36690;DHT22;22676;51.120;3.702;2023-08-31T01:49:42;23.80;53.90
36690;DHT22;22676;51.120;3.702;2023-08-31T01:52:09;23.80;53.50
36690;DHT22;22676;51.120;3.702;2023-08-31T01:54:34;23.90;53.00
36690;DHT22;22676;51.120;3.702;2023-08-31T01:57:03;23.90;53.10
36690;DHT22;22676;51.120;3.702;2023-08-31T01:59:28;23.90;53.60
36690;DHT22;22676;51.120;3.702;2023-08-31T02:01:54;23.90;53.10
36690;DHT22;22676;51.120;3.702;2023-08-31T02:04:20;23.80;53.20
36690;DHT22;22676;51.120;3.702;2023-08-31T02:06:45;23.80;53.30
36690;DHT22;22676;51.120;3.702;2023-08-31T02:09:13;23.80;53.40
36690;DHT22;22676;51.120;3.702;2023-08-31T02:11:38;23.80;53.40
36690;DHT22;22676;51.120;3.702;2023-08-31T02:14:05;23.80;53.40
36690;DHT22;22676;51.120;3.702;2023-08-31T02:16:31;23.80;53.40
36690;DHT22;22676;51.120;3.702;2023-08-31T02:18:57;23.80;53.50
36690;DHT22;22676;51.120;3.702;2023-08-31T02:21:23;23.70;53.40
36690;DHT22;22676;51.120;3.702;2023-08-31T02:23:48;23.70;53.40
36690;DHT22;22676;51.120;3.702;2023-08-31T02:26:14;23.70;53.50
36690;DHT22;22676;51.120;3.702;2023-08-31T02:28:40;23.70;53.40
36690;DHT22;22676;51.120;3.702;2023-08-31T02:31:05;23.70;53.50
36690;DHT22;22676;51.120;3.702;2023-08-31T02:33:31;23.70;53.60
36690;DHT22;22676;51.120;3.702;2023-08-31T02:35:57;23.70;53.60
36690;DHT22;22676;51.120;3.702;2023-08-31T02:38:23;23.70;53.70
36690;DHT22;22676;51.120;3.702;2023-08-31T02:40:49;23.70;53.50
36690;DHT22;22676;51.120;3.702;2023-08-31T02:43:15;23.70;53.50
36690;DHT22;22676;51.120;3.702;2023-08-31T02:45:41;23.70;53.50
36690;DHT22;22676;51.120;3.702;2023-08-31T02:48:07;23.70;53.40
36690;DHT22;22676;51.120;3.702;2023-08-31T02:50:34;23.70;53.40
36690;DHT22;22676;51.120;3.702;2023-08-31T02:53:00;23.70;52.70
36690;DHT22;22676;51.120;3.702;2023-08-31T02:55:26;23.70;52.70
36690;DHT22;22676;51.120;3.702;2023-08-31T02:57:52;23.80;52.70
36690;DHT22;22676;51.120;3.702;2023-08-31T03:00:18;23.70;52.70
36690;DHT22;22676;51.120;3.702;2023-08-31T03:02:47;23.70;52.90
36690;DHT22;22676;51.120;3.702;2023-08-31T03:05:13;23.60;53.00
36690;DHT22;22676;51.120;3.702;2023-08-31T03:07:39;23.70;53.10
36690;DHT22;22676;51.120;3.702;2023-08-31T03:10:05;23.60;53.10
36690;DHT22;22676;51.120;3.702;2023-08-31T03:12:31;23.70;53.10
36690;DHT22;22676;51.120;3.702;2023-08-31T03:14:56;23.60;53.10
36690;DHT22;22676;51.120;3.702;2023-08-31T03:17:22;23.60;53.10
36690;DHT22;22676;51.120;3.702;2023-08-31T03:19:48;23.60;53.20
36690;DHT22;22676;51.120;3.702;2023-08-31T03:22:14;23.60;53.10
36690;DHT22;22676;51.120;3.702;2023-08-31T03:24:40;23.60;53.10
36690;DHT22;22676;51.120;3.702;2023-08-31T03:27:05;23.60;53.20
36690;DHT22;22676;51.120;3.702;2023-08-31T03:29:31;23.60;53.10
36690;DHT22;22676;51.120;3.702;2023-08-31T03:31:59;23.60;53.10
36690;DHT22;22676;51.120;3.702;2023-08-31T03:34:31;23.60;53.10
36690;DHT22;22676;51.120;3.702;2023-08-31T03:37:00;23.60;53.10
36690;DHT22;22676;51.120;3.702;2023-08-31T03:39:26;23.60;53.20
36690;DHT22;22676;51.120;3.702;2023-08-31T03:41:51;23.60;53.30
36690;DHT22;22676;51.120;3.702;2023-08-31T03:44:17;23.60;53.30
36690;DHT22;22676;51.120;3.702;2023-08-31T03:46:43;23.60;53.20
36690;DHT22;22676;51.120;3.702;2023-08-31T03:49:09;23.50;53.10
36690;DHT22;22676;51.120;3.702;2023-08-31T03:51:35;23.60;52.90
36690;DHT22;22676;51.120;3.702;2023-08-31T03:54:00;23.60;52.60
36690;DHT22;22676;51.120;3.702;2023-08-31T03:56:26;23.60;52.40
36690;DHT22;22676;51.120;3.702;2023-08-31T03:58:52;23.60;52.50
36690;DHT22;22676;51.120;3.702;2023-08-31T04:01:18;23.60;52.50
36690;DHT22;22676;51.120;3.702;2023-08-31T04:03:44;23.50;52.70
36690;DHT22;22676;51.120;3.702;2023-08-31T04:06:09;23.50;52.80
36690;DHT22;22676;51.120;3.702;2023-08-31T04:08:35;23.50;52.90
36690;DHT22;22676;51.120;3.702;2023-08-31T04:11:01;23.50;53.00
36690;DHT22;22676;51.120;3.702;2023-08-31T04:13:27;23.50;53.00
36690;DHT22;22676;51.120;3.702;2023-08-31T04:15:52;23.50;52.90
36690;DHT22;22676;51.120;3.702;2023-08-31T04:18:18;23.50;53.00
36690;DHT22;22676;51.120;3.702;2023-08-31T04:20:51;23.50;53.00
36690;DHT22;22676;51.120;3.702;2023-08-31T04:23:20;23.50;53.00
36690;DHT22;22676;51.120;3.702;2023-08-31T04:25:47;23.50;53.00
36690;DHT22;22676;51.120;3.702;2023-08-31T04:28:13;23.50;53.00
36690;DHT22;22676;51.120;3.702;2023-08-31T04:30:40;23.50;53.00
36690;DHT22;22676;51.120;3.702;2023-08-31T04:33:06;23.40;52.90
36690;DHT22;22676;51.120;3.702;2023-08-31T04:35:33;23.40;53.00
36690;DHT22;22676;51.120;3.702;2023-08-31T04:37:58;23.40;52.90
36690;DHT22;22676;51.120;3.702;2023-08-31T04:40:24;23.40;53.00
36690;DHT22;22676;51.120;3.702;2023-08-31T04:42:51;23.50;53.00
36690;DHT22;22676;51.120;3.702;2023-08-31T04:45:16;23.40;53.00
36690;DHT22;22676;51.120;3.702;2023-08-31T04:47:42;23.40;53.00
36690;DHT22;22676;51.120;3.702;2023-08-31T04:50:08;23.40;53.00
36690;DHT22;22676;51.120;3.702;2023-08-31T04:52:34;23.50;52.60
36690;DHT22;22676;51.120;3.702;2023-08-31T04:55:05;23.50;52.30
36690;DHT22;22676;51.120;3.702;2023-08-31T04:57:33;23.50;52.30
36690;DHT22;22676;51.120;3.702;2023-08-31T04:59:58;23.50;52.20
36690;DHT22;22676;51.120;3.702;2023-08-31T05:02:24;23.50;52.30
36690;DHT22;22676;51.120;3.702;2023-08-31T05:04:50;23.50;52.50
36690;DHT22;22676;51.120;3.702;2023-08-31T05:07:16;23.40;52.60
36690;DHT22;22676;51.120;3.702;2023-08-31T05:09:41;23.40;52.70
36690;DHT22;22676;51.120;3.702;2023-08-31T05:12:07;23.40;52.70
36690;DHT22;22676;51.120;3.702;2023-08-31T05:14:33;23.40;52.70
36690;DHT22;22676;51.120;3.702;2023-08-31T05:17:03;23.40;52.80
36690;DHT22;22676;51.120;3.702;2023-08-31T05:19:30;23.40;52.80
36690;DHT22;22676;51.120;3.702;2023-08-31T05:21:56;23.40;52.90
36690;DHT22;22676;51.120;3.702;2023-08-31T05:24:21;23.40;52.80
36690;DHT22;22676;51.120;3.702;2023-08-31T05:26:47;23.40;52.90
36690;DHT22;22676;51.120;3.702;2023-08-31T05:29:13;23.40;52.90
36690;DHT22;22676;51.120;3.702;2023-08-31T05:31:38;23.40;52.80
36690;DHT22;22676;51.120;3.702;2023-08-31T05:34:04;23.30;52.80
36690;DHT22;22676;51.120;3.702;2023-08-31T05:36:30;23.40;52.90
36690;DHT22;22676;51.120;3.702;2023-08-31T05:38:55;23.30;52.90
36690;DHT22;22676;51.120;3.702;2023-08-31T05:41:21;23.30;52.90
36690;DHT22;22676;51.120;3.702;2023-08-31T05:43:46;23.30;52.90
36690;DHT22;22676;51.120;3.702;2023-08-31T05:46:12;23.30;52.90
36690;DHT22;22676;51.120;3.702;2023-08-31T05:48:38;23.30;52.80
36690;DHT22;22676;51.120;3.702;2023-08-31T05:51:04;23.40;52.80
36690;DHT22;22676;51.120;3.702;2023-08-31T05:53:30;23.40;52.20
36690;DHT22;22676;51.120;3.702;2023-08-31T05:55:57;23.40;52.10
36690;DHT22;22676;51.120;3.702;2023-08-31T05:58:33;23.40;52.30
36690;DHT22;22676;51.120;3.702;2023-08-31T06:01:00;23.40;52.20
36690;DHT22;22676;51.120;3.702;2023-08-31T06:03:26;23.40;52.30
36690;DHT22;22676;51.120;3.702;2023-08-31T06:05:52;23.30;52.40
36690;DHT22;22676;51.120;3.702;2023-08-31T06:08:17;23.40;52.50
36690;DHT22;22676;51.120;3.702;2023-08-31T06:10:43;23.40;52.60
36690;DHT22;22676;51.120;3.702;2023-08-31T06:13:09;23.30;52.60
36690;DHT22;22676;51.120;3.702;2023-08-31T06:15:35;23.30;52.60
36690;DHT22;22676;51.120;3.702;2023-08-31T06:18:00;23.30;52.60
36690;DHT22;22676;51.120;3.702;2023-08-31T06:20:26;23.30;52.70
36690;DHT22;22676;51.120;3.702;2023-08-31T06:22:51;23.30;52.70
36690;DHT22;22676;51.120;3.702;2023-08-31T06:25:17;23.30;52.70
36690;DHT22;22676;51.120;3.702;2023-08-31T06:27:44;23.30;52.80
36690;DHT22;22676;51.120;3.702;2023-08-31T06:30:10;23.20;52.70
36690;DHT22;22676;51.120;3.702;2023-08-31T06:32:45;23.30;52.70
36690;DHT22;22676;51.120;3.702;2023-08-31T06:35:12;23.30;52.80
36690;DHT22;22676;51.120;3.702;2023-08-31T06:37:39;23.30;52.80
36690;DHT22;22676;51.120;3.702;2023-08-31T06:40:09;23.30;52.90
36690;DHT22;22676;51.120;3.702;2023-08-31T06:42:38;23.20;52.90
36690;DHT22;22676;51.120;3.702;2023-08-31T06:45:07;23.30;52.80
36690;DHT22;22676;51.120;3.702;2023-08-31T06:47:33;23.30;52.80
36690;DHT22;22676;51.120;3.702;2023-08-31T06:49:59;23.30;52.90
36690;DHT22;22676;51.120;3.702;2023-08-31T06:52:26;23.30;52.80
36690;DHT22;22676;51.120;3.702;2023-08-31T06:54:52;23.30;52.60
36690;DHT22;22676;51.120;3.702;2023-08-31T06:57:22;23.20;52.70
36690;DHT22;22676;51.120;3.702;2023-08-31T06:59:48;23.20;52.80
36690;DHT22;22676;51.120;3.702;2023-08-31T07:02:14;23.10;52.90
36690;DHT22;22676;51.120;3.702;2023-08-31T07:04:40;23.10;53.00
36690;DHT22;22676;51.120;3.702;2023-08-31T07:07:06;23.10;53.10
36690;DHT22;22676;51.120;3.702;2023-08-31T07:09:34;23.10;53.10
36690;DHT22;22676;51.120;3.702;2023-08-31T07:12:00;23.10;53.10
36690;DHT22;22676;51.120;3.702;2023-08-31T07:14:26;23.10;53.10
36690;DHT22;22676;51.120;3.702;2023-08-31T07:16:52;23.10;53.10
36690;DHT22;22676;51.120;3.702;2023-08-31T07:19:18;23.10;53.30
36690;DHT22;22676;51.120;3.702;2023-08-31T07:21:43;23.10;53.50
36690;DHT22;22676;51.120;3.702;2023-08-31T07:24:09;23.20;53.60
36690;DHT22;22676;51.120;3.702;2023-08-31T07:26:35;23.20;53.50
36690;DHT22;22676;51.120;3.702;2023-08-31T07:29:01;23.10;53.60
36690;DHT22;22676;51.120;3.702;2023-08-31T07:31:30;23.20;53.90
36690;DHT22;22676;51.120;3.702;2023-08-31T07:33:56;23.10;54.00
36690;DHT22;22676;51.120;3.702;2023-08-31T07:36:22;23.10;54.00
36690;DHT22;22676;51.120;3.702;2023-08-31T07:38:48;23.20;54.10
36690;DHT22;22676;51.120;3.702;2023-08-31T07:41:13;23.20;54.20
36690;DHT22;22676;51.120;3.702;2023-08-31T07:43:39;23.20;54.20
36690;DHT22;22676;51.120;3.702;2023-08-31T07:46:04;23.20;54.20
36690;DHT22;22676;51.120;3.702;2023-08-31T07:48:30;23.20;54.30
36690;DHT22;22676;51.120;3.702;2023-08-31T07:50:56;23.20;54.20
36690;DHT22;22676;51.120;3.702;2023-08-31T07:53:22;23.30;53.70
36690;DHT22;22676;51.120;3.702;2023-08-31T07:55:55;23.30;53.30
36690;DHT22;22676;51.120;3.702;2023-08-31T07:58:25;23.30;53.60
36690;DHT22;22676;51.120;3.702;2023-08-31T08:00:57;23.30;54.00
36690;DHT22;22676;51.120;3.702;2023-08-31T08:03:23;23.30;54.40
36690;DHT22;22676;51.120;3.702;2023-08-31T08:05:49;23.30;54.40
36690;DHT22;22676;51.120;3.702;2023-08-31T08:08:15;23.30;54.30
36690;DHT22;22676;51.120;3.702;2023-08-31T08:10:41;23.30;54.40
36690;DHT22;22676;51.120;3.702;2023-08-31T08:13:08;23.30;54.50
36690;DHT22;22676;51.120;3.702;2023-08-31T08:15:34;23.40;54.40
36690;DHT22;22676;51.120;3.702;2023-08-31T08:17:59;23.40;54.50
36690;DHT22;22676;51.120;3.702;2023-08-31T08:20:26;23.30;54.60
36690;DHT22;22676;51.120;3.702;2023-08-31T08:22:52;23.40;54.60
36690;DHT22;22676;51.120;3.702;2023-08-31T08:25:19;23.40;54.70
36690;DHT22;22676;51.120;3.702;2023-08-31T08:27:46;23.40;54.70
36690;DHT22;22676;51.120;3.702;2023-08-31T08:30:12;23.30;54.70
36690;DHT22;22676;51.120;3.702;2023-08-31T08:32:38;23.40;54.70
36690;DHT22;22676;51.120;3.702;2023-08-31T08:35:04;23.40;54.60
36690;DHT22;22676;51.120;3.702;2023-08-31T08:37:30;23.40;54.60
36690;DHT22;22676;51.120;3.702;2023-08-31T08:39:58;23.40;54.50
36690;DHT22;22676;51.120;3.702;2023-08-31T08:42:25;23.50;54.60
36690;DHT22;22676;51.120;3.702;2023-08-31T08:44:51;23.50;54.60
36690;DHT22;22676;51.120;3.702;2023-08-31T08:47:17;23.50;54.50
36690;DHT22;22676;51.120;3.702;2023-08-31T08:49:43;23.50;54.60
36690;DHT22;22676;51.120;3.702;2023-08-31T08:52:10;23.50;54.50
36690;DHT22;22676;51.120;3.702;2023-08-31T08:54:36;23.60;54.60
36690;DHT22;22676;51.120;3.702;2023-08-31T08:57:03;23.60;54.60
36690;DHT22;22676;51.120;3.702;2023-08-31T08:59:32;23.60;54.40
36690;DHT22;22676;51.120;3.702;2023-08-31T09:01:57;23.60;54.70
36690;DHT22;22676;51.120;3.702;2023-08-31T09:04:23;23.60;54.70
36690;DHT22;22676;51.120;3.702;2023-08-31T09:06:52;23.60;54.80
36690;DHT22;22676;51.120;3.702;2023-08-31T09:09:18;23.70;54.80
36690;DHT22;22676;51.120;3.702;2023-08-31T09:11:45;23.70;54.70
36690;DHT22;22676;51.120;3.702;2023-08-31T09:14:18;23.70;54.90
36690;DHT22;22676;51.120;3.702;2023-08-31T09:16:49;23.70;54.80
36690;DHT22;22676;51.120;3.702;2023-08-31T09:19:19;23.70;55.50
36690;DHT22;22676;51.120;3.702;2023-08-31T09:21:46;23.70;55.00
36690;DHT22;22676;51.120;3.702;2023-08-31T09:24:12;23.70;55.10
36690;DHT22;22676;51.120;3.702;2023-08-31T09:26:39;23.70;55.10
36690;DHT22;22676;51.120;3.702;2023-08-31T09:29:06;23.60;55.10
36690;DHT22;22676;51.120;3.702;2023-08-31T09:31:32;23.60;55.00
36690;DHT22;22676;51.120;3.702;2023-08-31T09:33:58;23.70;55.20
36690;DHT22;22676;51.120;3.702;2023-08-31T09:36:24;23.70;55.20
36690;DHT22;22676;51.120;3.702;2023-08-31T09:38:49;23.70;55.20
36690;DHT22;22676;51.120;3.702;2023-08-31T09:41:15;23.70;55.20
36690;DHT22;22676;51.120;3.702;2023-08-31T09:43:44;23.70;55.20
36690;DHT22;22676;51.120;3.702;2023-08-31T09:46:10;23.80;55.20
36690;DHT22;22676;51.120;3.702;2023-08-31T09:48:37;23.80;55.70
36690;DHT22;22676;51.120;3.702;2023-08-31T09:51:04;23.80;55.00
36690;DHT22;22676;51.120;3.702;2023-08-31T09:53:31;23.80;54.70
36690;DHT22;22676;51.120;3.702;2023-08-31T09:55:57;23.80;54.50
36690;DHT22;22676;51.120;3.702;2023-08-31T09:58:23;23.80;54.50
36690;DHT22;22676;51.120;3.702;2023-08-31T10:00:51;23.80;54.70
36690;DHT22;22676;51.120;3.702;2023-08-31T10:03:17;23.80;54.80
36690;DHT22;22676;51.120;3.702;2023-08-31T10:05:44;23.80;54.80
36690;DHT22;22676;51.120;3.702;2023-08-31T10:08:13;23.80;54.80
36690;DHT22;22676;51.120;3.702;2023-08-31T10:10:40;23.80;54.80
36690;DHT22;22676;51.120;3.702;2023-08-31T10:13:06;23.90;54.70
36690;DHT22;22676;51.120;3.702;2023-08-31T10:15:34;23.90;54.70
36690;DHT22;22676;51.120;3.702;2023-08-31T10:18:04;24.00;54.70
36690;DHT22;22676;51.120;3.702;2023-08-31T10:20:32;24.00;54.60
36690;DHT22;22676;51.120;3.702;2023-08-31T10:23:02;24.00;54.60
36690;DHT22;22676;51.120;3.702;2023-08-31T10:28:25;24.10;54.40
36690;DHT22;22676;51.120;3.702;2023-08-31T10:31:01;24.10;54.60
36690;DHT22;22676;51.120;3.702;2023-08-31T10:33:43;24.10;54.50
36690;DHT22;22676;51.120;3.702;2023-08-31T10:36:15;24.10;54.50
36690;DHT22;22676;51.120;3.702;2023-08-31T10:38:44;24.10;54.50
36690;DHT22;22676;51.120;3.702;2023-08-31T10:43:49;24.10;54.50
36690;DHT22;22676;51.120;3.702;2023-08-31T10:49:13;24.00;54.40
36690;DHT22;22676;51.120;3.702;2023-08-31T10:51:44;24.10;54.40
36690;DHT22;22676;51.120;3.702;2023-08-31T10:54:31;24.10;54.60
36690;DHT22;22676;51.120;3.702;2023-08-31T10:59:26;24.10;54.70
36690;DHT22;22676;51.120;3.702;2023-08-31T11:02:06;24.10;54.60
36690;DHT22;22676;51.120;3.702;2023-08-31T11:04:55;24.20;54.60
36690;DHT22;22676;51.120;3.702;2023-08-31T11:07:25;24.20;54.60
36690;DHT22;22676;51.120;3.702;2023-08-31T11:09:51;24.20;54.60
36690;DHT22;22676;51.120;3.702;2023-08-31T11:12:17;24.20;54.70
36690;DHT22;22676;51.120;3.702;2023-08-31T11:14:42;24.30;54.90
36690;DHT22;22676;51.120;3.702;2023-08-31T11:17:09;24.30;55.00
36690;DHT22;22676;51.120;3.702;2023-08-31T11:19:36;24.40;55.00
36690;DHT22;22676;51.120;3.702;2023-08-31T11:22:03;24.30;54.70
36690;DHT22;22676;51.120;3.702;2023-08-31T11:24:33;24.40;54.60
36690;DHT22;22676;51.120;3.702;2023-08-31T11:26:59;24.40;54.60
36690;DHT22;22676;51.120;3.702;2023-08-31T11:29:25;24.40;54.50
36690;DHT22;22676;51.120;3.702;2023-08-31T11:31:51;24.40;54.30
36690;DHT22;22676;51.120;3.702;2023-08-31T11:34:18;24.50;54.20
36690;DHT22;22676;51.120;3.702;2023-08-31T11:36:46;24.40;54.00
36690;DHT22;22676;51.120;3.702;2023-08-31T11:39:12;24.50;54.10
36690;DHT22;22676;51.120;3.702;2023-08-31T11:41:39;24.50;54.00
36690;DHT22;22676;51.120;3.702;2023-08-31T11:44:12;24.50;54.10
36690;DHT22;22676;51.120;3.702;2023-08-31T11:46:40;24.40;54.00
36690;DHT22;22676;51.120;3.702;2023-08-31T11:49:07;24.40;54.00
36690;DHT22;22676;51.120;3.702;2023-08-31T11:51:34;24.50;54.00
36690;DHT22;22676;51.120;3.702;2023-08-31T11:54:04;24.50;53.80
36690;DHT22;22676;51.120;3.702;2023-08-31T11:59:10;24.40;53.60
36690;DHT22;22676;51.120;3.702;2023-08-31T12:01:39;24.40;53.60
36690;DHT22;22676;51.120;3.702;2023-08-31T12:04:16;24.40;53.70
36690;DHT22;22676;51.120;3.702;2023-08-31T12:06:46;24.50;53.50
36690;DHT22;22676;51.120;3.702;2023-08-31T12:09:13;24.50;53.60
36690;DHT22;22676;51.120;3.702;2023-08-31T12:11:38;24.50;53.60
36690;DHT22;22676;51.120;3.702;2023-08-31T12:14:18;24.50;53.60
36690;DHT22;22676;51.120;3.702;2023-08-31T12:16:44;24.50;53.40
36690;DHT22;22676;51.120;3.702;2023-08-31T12:19:10;24.50;53.50
36690;DHT22;22676;51.120;3.702;2023-08-31T12:21:36;24.50;54.00
36690;DHT22;22676;51.120;3.702;2023-08-31T12:24:02;24.50;53.40
36690;DHT22;22676;51.120;3.702;2023-08-31T12:26:29;24.50;53.40
36690;DHT22;22676;51.120;3.702;2023-08-31T12:28:55;24.50;53.50
36690;DHT22;22676;51.120;3.702;2023-08-31T12:31:22;24.50;53.50
36690;DHT22;22676;51.120;3.702;2023-08-31T12:33:48;24.50;54.00
36690;DHT22;22676;51.120;3.702;2023-08-31T12:36:14;24.50;53.40
36690;DHT22;22676;51.120;3.702;2023-08-31T12:38:40;24.50;53.50
36690;DHT22;22676;51.120;3.702;2023-08-31T12:41:06;24.50;53.40
36690;DHT22;22676;51.120;3.702;2023-08-31T12:43:31;24.50;53.30
36690;DHT22;22676;51.120;3.702;2023-08-31T12:45:57;24.50;53.40
36690;DHT22;22676;51.120;3.702;2023-08-31T12:48:23;24.50;53.40
36690;DHT22;22676;51.120;3.702;2023-08-31T12:50:49;24.50;53.30
36690;DHT22;22676;51.120;3.702;2023-08-31T12:53:15;24.50;53.00
36690;DHT22;22676;51.120;3.702;2023-08-31T12:55:40;24.50;52.50
36690;DHT22;22676;51.120;3.702;2023-08-31T12:58:06;24.50;52.80
36690;DHT22;22676;51.120;3.702;2023-08-31T13:00:32;24.50;52.70
36690;DHT22;22676;51.120;3.702;2023-08-31T13:02:59;24.40;52.70
36690;DHT22;22676;51.120;3.702;2023-08-31T13:05:25;24.40;52.70
36690;DHT22;22676;51.120;3.702;2023-08-31T13:07:53;24.50;52.40
36690;DHT22;22676;51.120;3.702;2023-08-31T13:10:18;24.50;52.40
36690;DHT22;22676;51.120;3.702;2023-08-31T13:12:44;24.50;52.40
36690;DHT22;22676;51.120;3.702;2023-08-31T13:15:10;24.50;52.40
36690;DHT22;22676;51.120;3.702;2023-08-31T13:17:35;24.40;52.90
36690;DHT22;22676;51.120;3.702;2023-08-31T13:20:01;24.40;52.20
36690;DHT22;22676;51.120;3.702;2023-08-31T13:22:30;24.40;52.00
36690;DHT22;22676;51.120;3.702;2023-08-31T13:24:56;24.40;51.70
36690;DHT22;22676;51.120;3.702;2023-08-31T13:27:22;24.40;51.40
36690;DHT22;22676;51.120;3.702;2023-08-31T13:29:48;24.40;51.40
36690;DHT22;22676;51.120;3.702;2023-08-31T13:32:13;24.40;51.30
36690;DHT22;22676;51.120;3.702;2023-08-31T13:34:39;24.40;51.30
36690;DHT22;22676;51.120;3.702;2023-08-31T13:37:05;24.40;51.30
36690;DHT22;22676;51.120;3.702;2023-08-31T13:39:33;24.40;51.20
36690;DHT22;22676;51.120;3.702;2023-08-31T13:41:59;24.40;51.00
36690;DHT22;22676;51.120;3.702;2023-08-31T13:44:27;24.40;51.00
36690;DHT22;22676;51.120;3.702;2023-08-31T13:46:53;24.40;51.00
36690;DHT22;22676;51.120;3.702;2023-08-31T13:49:18;24.40;51.00
36690;DHT22;22676;51.120;3.702;2023-08-31T13:51:44;24.40;51.00
36690;DHT22;22676;51.120;3.702;2023-08-31T13:54:11;24.40;50.90
36690;DHT22;22676;51.120;3.702;2023-08-31T13:56:36;24.50;50.70
36690;DHT22;22676;51.120;3.702;2023-08-31T13:59:02;24.50;50.80
36690;DHT22;22676;51.120;3.702;2023-08-31T14:01:28;24.60;50.70
36690;DHT22;22676;51.120;3.702;2023-08-31T14:03:53;24.70;50.60
36690;DHT22;22676;51.120;3.702;2023-08-31T14:06:19;24.80;50.50
36690;DHT22;22676;51.120;3.702;2023-08-31T14:08:45;24.90;50.40
36690;DHT22;22676;51.120;3.702;2023-08-31T14:11:10;25.00;50.40
36690;DHT22;22676;51.120;3.702;2023-08-31T14:13:36;25.10;50.30
36690;DHT22;22676;51.120;3.702;2023-08-31T14:16:02;25.30;50.40
36690;DHT22;22676;51.120;3.702;2023-08-31T14:18:29;25.30;50.30
36690;DHT22;22676;51.120;3.702;2023-08-31T14:20:57;25.40;51.00
36690;DHT22;22676;51.120;3.702;2023-08-31T14:23:24;25.50;50.60
36690;DHT22;22676;51.120;3.702;2023-08-31T14:25:50;25.60;50.50
36690;DHT22;22676;51.120;3.702;2023-08-31T14:28:16;25.60;50.20
36690;DHT22;22676;51.120;3.702;2023-08-31T14:30:41;25.70;50.30
36690;DHT22;22676;51.120;3.702;2023-08-31T14:33:07;25.80;50.20
36690;DHT22;22676;51.120;3.702;2023-08-31T14:35:39;25.90;50.40
36690;DHT22;22676;51.120;3.702;2023-08-31T14:38:05;25.90;50.10
36690;DHT22;22676;51.120;3.702;2023-08-31T14:40:32;26.00;50.20
36690;DHT22;22676;51.120;3.702;2023-08-31T14:43:00;26.00;51.00
36690;DHT22;22676;51.120;3.702;2023-08-31T14:45:26;26.10;51.30
36690;DHT22;22676;51.120;3.702;2023-08-31T14:47:52;26.30;50.70
36690;DHT22;22676;51.120;3.702;2023-08-31T14:50:17;26.30;50.60
36690;DHT22;22676;51.120;3.702;2023-08-31T14:52:43;26.30;50.30
36690;DHT22;22676;51.120;3.702;2023-08-31T14:55:09;26.30;50.10
36690;DHT22;22676;51.120;3.702;2023-08-31T14:57:34;26.30;50.10
36690;DHT22;22676;51.120;3.702;2023-08-31T15:00:00;26.40;50.70
36690;DHT22;22676;51.120;3.702;2023-08-31T15:02:27;26.50;50.80
36690;DHT22;22676;51.120;3.702;2023-08-31T15:04:53;26.50;50.50
36690;DHT22;22676;51.120;3.702;2023-08-31T15:07:18;26.60;50.80
36690;DHT22;22676;51.120;3.702;2023-08-31T15:09:44;26.60;50.70
36690;DHT22;22676;51.120;3.702;2023-08-31T15:12:11;26.70;50.80
36690;DHT22;22676;51.120;3.702;2023-08-31T15:14:37;26.70;50.90
36690;DHT22;22676;51.120;3.702;2023-08-31T15:17:07;26.80;50.90
36690;DHT22;22676;51.120;3.702;2023-08-31T15:19:32;26.80;51.00
36690;DHT22;22676;51.120;3.702;2023-08-31T15:21:59;26.80;51.10
36690;DHT22;22676;51.120;3.702;2023-08-31T15:24:24;26.80;51.10
36690;DHT22;22676;51.120;3.702;2023-08-31T15:26:50;26.90;51.30
36690;DHT22;22676;51.120;3.702;2023-08-31T15:29:16;26.90;51.10
36690;DHT22;22676;51.120;3.702;2023-08-31T15:31:42;26.90;51.00
36690;DHT22;22676;51.120;3.702;2023-08-31T15:34:10;26.90;50.90
36690;DHT22;22676;51.120;3.702;2023-08-31T15:36:36;26.90;50.80
36690;DHT22;22676;51.120;3.702;2023-08-31T15:39:02;26.90;50.60
36690;DHT22;22676;51.120;3.702;2023-08-31T15:41:28;27.00;50.60
36690;DHT22;22676;51.120;3.702;2023-08-31T15:44:00;26.90;50.80
36690;DHT22;22676;51.120;3.702;2023-08-31T15:46:26;26.90;50.90
36690;DHT22;22676;51.120;3.702;2023-08-31T15:48:52;26.80;50.70